createdAt,value
2023-02-23T00:01:02.168Z,81.21
2023-02-23T00:04:06.962Z,80.89
2023-02-23T00:07:10.304Z,81.36
2023-02-23T00:10:18.287Z,81.49
2023-02-23T00:13:20.935Z,82.11
2023-02-23T00:16:26.063Z,82.03
2023-02-23T00:19:33.163Z,81.55
2023-02-23T00:22:35.951Z,81.84
2023-02-23T00:25:39.839Z,81.51
2023-02-23T00:28:44.415Z,82.06
2023-02-23T00:31:47.736Z,82.70
2023-02-23T00:34:52.350Z,82.19
2023-02-23T00:37:55.047Z,82.38
2023-02-23T00:40:57.663Z,83.33
2023-02-23T00:44:01.912Z,84.26
2023-02-23T00:47:04.655Z,84.68
2023-02-23T00:50:12.876Z,85.65
2023-02-23T00:53:16.394Z,86.39
2023-02-23T00:56:19.004Z,86.56
2023-02-23T00:59:21.742Z,86.64
2023-02-23T01:02:25.140Z,87.01
2023-02-23T01:05:29.204Z,87.65
2023-02-23T01:08:32.324Z,88.02
2023-02-23T01:11:35.253Z,88.01
2023-02-23T01:14:38.309Z,88.80
2023-02-23T01:17:41.163Z,89.40
2023-02-23T01:20:46.323Z,89.76
2023-02-23T01:23:49.654Z,89.53
2023-02-23T01:26:52.370Z,90.17
2023-02-23T01:29:55.438Z,90.02
2023-02-23T01:32:58.159Z,90.26
2023-02-23T01:36:02.255Z,90.39
2023-02-23T01:39:07.675Z,89.84
2023-02-23T01:42:13.818Z,89.88
2023-02-23T01:45:24.799Z,90.72
2023-02-23T01:48:32.606Z,90.84
2023-02-23T01:51:42.965Z,90.58
2023-02-23T01:54:50.544Z,90.71
2023-02-23T01:57:57.160Z,91.33
2023-02-23T02:01:02.549Z,91.65
2023-02-23T02:04:06.578Z,91.08
2023-02-23T02:07:11.495Z,90.95
2023-02-23T02:10:33.808Z,91.02
2023-02-23T02:13:37.828Z,91.77
2023-02-23T02:17:03.517Z,92.11
2023-02-23T02:20:52.376Z,91.98
2023-02-23T02:24:22.007Z,92.39
2023-02-23T02:27:43.406Z,92.63
2023-02-23T02:31:30.203Z,92.76
2023-02-23T02:35:10.124Z,92.23
2023-02-23T02:38:25.311Z,92.89
2023-02-23T02:41:36.931Z,92.60
2023-02-23T02:44:49.548Z,92.38
2023-02-23T02:47:59.386Z,92.44
2023-02-23T02:51:10.035Z,92.65
2023-02-23T02:54:22.119Z,93.17
2023-02-23T02:57:28.740Z,92.93
2023-02-23T03:00:54.991Z,93.08
2023-02-23T03:04:17.443Z,93.03
2023-02-23T03:07:45.287Z,92.75
2023-02-23T03:11:17.320Z,92.94
2023-02-23T03:14:47.319Z,93.01
2023-02-23T03:18:15.637Z,92.95
2023-02-23T03:21:44.473Z,93.34
2023-02-23T03:25:13.422Z,93.13
2023-02-23T03:28:37.736Z,92.84
2023-02-23T03:32:06.796Z,93.59
2023-02-23T03:35:34.149Z,93.67
2023-02-23T03:38:59.620Z,93.42
2023-02-23T03:42:23.858Z,93.76
2023-02-23T03:45:47.876Z,93.37
2023-02-23T03:49:12.046Z,93.65
2023-02-23T03:52:35.730Z,93.40
2023-02-23T03:56:01.143Z,93.67
2023-02-23T03:59:24.300Z,93.77
2023-02-23T04:02:47.915Z,93.84
2023-02-23T04:06:11.601Z,93.88
2023-02-23T04:09:32.457Z,93.92
2023-02-23T04:12:56.169Z,93.75
2023-02-23T04:16:03.644Z,94.04
2023-02-23T04:19:07.822Z,93.98
2023-02-23T04:22:10.499Z,94.20
2023-02-23T04:25:17.234Z,94.07
2023-02-23T04:28:20.562Z,93.79
2023-02-23T04:31:25.131Z,92.73
2023-02-23T04:34:29.539Z,93.14
2023-02-23T04:37:32.142Z,93.15
2023-02-23T04:40:35.308Z,93.42
2023-02-23T04:43:38.099Z,92.75
2023-02-23T04:46:40.778Z,92.99
2023-02-23T04:49:45.508Z,92.64
2023-02-23T04:52:48.707Z,93.22
2023-02-23T04:55:51.703Z,93.05
2023-02-23T04:58:54.373Z,93.04
2023-02-23T05:01:57.028Z,92.54
2023-02-23T05:05:01.061Z,92.77
2023-02-23T05:08:03.766Z,93.41
2023-02-23T05:11:07.618Z,94.29
2023-02-23T05:14:10.677Z,94.09
2023-02-23T05:17:13.532Z,93.88
2023-02-23T05:20:17.552Z,93.93
2023-02-23T05:23:20.317Z,93.90
2023-02-23T05:26:23.049Z,94.26
2023-02-23T05:29:25.774Z,94.10
2023-02-23T05:32:28.575Z,93.42
2023-02-23T05:35:32.899Z,93.64
2023-02-23T05:38:36.155Z,93.17
2023-02-23T05:41:39.238Z,93.12
2023-02-23T05:44:41.857Z,93.36
2023-02-23T05:47:44.468Z,92.85
2023-02-23T05:50:48.464Z,93.67
2023-02-23T05:53:51.267Z,93.82
2023-02-23T05:56:54.077Z,94.29
2023-02-23T05:59:56.728Z,94.19
2023-02-23T06:02:59.396Z,94.25
2023-02-23T06:06:03.536Z,94.06
2023-02-23T06:09:06.204Z,94.09
2023-02-23T06:12:10.113Z,94.40
2023-02-23T06:15:12.883Z,94.75
2023-02-23T06:18:15.468Z,94.53
2023-02-23T06:21:19.733Z,94.78
2023-02-23T06:24:23.693Z,94.76
2023-02-23T06:27:26.858Z,94.64
2023-02-23T06:30:29.635Z,94.85
2023-02-23T06:33:32.261Z,95.30
2023-02-23T06:36:36.532Z,94.62
2023-02-23T06:39:39.142Z,94.54
2023-02-23T06:42:41.826Z,94.60
2023-02-23T06:45:44.476Z,94.69
2023-02-23T06:48:47.336Z,94.49
2023-02-23T06:51:51.653Z,94.68
2023-02-23T06:54:54.406Z,95.75
2023-02-23T06:57:57.376Z,95.26
2023-02-23T07:01:00.386Z,95.50
2023-02-23T07:04:03.179Z,95.34
2023-02-23T07:07:07.480Z,95.32
2023-02-23T07:10:11.803Z,95.29
2023-02-23T07:13:14.512Z,95.68
2023-02-23T07:16:17.219Z,95.61
2023-02-23T07:19:19.879Z,95.66
2023-02-23T07:22:25.305Z,95.82
2023-02-23T07:25:27.966Z,96.12
2023-02-23T07:28:30.611Z,95.97
2023-02-23T07:31:33.347Z,96.37
2023-02-23T07:34:37.062Z,96.61
2023-02-23T07:37:42.079Z,96.48
2023-02-23T07:40:44.700Z,97.03
2023-02-23T07:43:47.465Z,96.63
2023-02-23T07:46:50.569Z,96.33
2023-02-23T07:49:53.190Z,96.52
2023-02-23T07:52:57.233Z,96.54
2023-02-23T07:56:00.739Z,96.63
2023-02-23T07:59:03.631Z,96.56
2023-02-23T08:02:07.014Z,96.65
2023-02-23T08:05:10.029Z,96.79
2023-02-23T08:08:14.126Z,96.65
2023-02-23T08:11:17.211Z,97.14
2023-02-23T08:14:23.569Z,96.89
2023-02-23T08:17:27.437Z,96.68
2023-02-23T08:20:30.807Z,96.58
2023-02-23T08:23:35.579Z,97.11
2023-02-23T08:26:38.737Z,96.85
2023-02-23T08:29:41.417Z,97.30
2023-02-23T08:32:44.017Z,96.91
2023-02-23T08:35:46.854Z,97.15
2023-02-23T08:38:51.152Z,97.05
2023-02-23T08:41:55.605Z,96.27
2023-02-23T08:44:59.163Z,96.04
2023-02-23T08:48:01.806Z,95.42
2023-02-23T08:51:04.590Z,95.17
2023-02-23T08:54:14.313Z,94.35
2023-02-23T08:57:17.600Z,94.00
2023-02-23T09:00:21.584Z,93.31
2023-02-23T09:03:25.845Z,93.91
2023-02-23T09:06:28.938Z,93.84
2023-02-23T09:09:34.135Z,93.59
2023-02-23T09:12:36.769Z,93.59
2023-02-23T09:15:40.201Z,94.02
2023-02-23T09:18:43.266Z,93.76
2023-02-23T09:21:45.968Z,93.58
2023-02-23T09:24:50.026Z,92.51
2023-02-23T09:27:53.914Z,92.60
2023-02-23T09:30:56.568Z,92.15
2023-02-23T09:34:00.286Z,91.56
2023-02-23T09:37:03.550Z,90.38
2023-02-23T09:40:09.895Z,89.44
2023-02-23T09:43:16.313Z,88.86
2023-02-23T09:46:29.458Z,89.20
2023-02-23T09:49:38.349Z,88.48
2023-02-23T09:52:44.968Z,87.80
2023-02-23T09:55:51.372Z,86.92
2023-02-23T09:58:54.384Z,85.56
2023-02-23T10:02:05.551Z,85.13
2023-02-23T10:05:11.775Z,83.57
2023-02-23T10:08:26.004Z,81.66
2023-02-23T10:11:39.839Z,80.59
2023-02-23T10:14:59.419Z,79.14
2023-02-23T10:18:13.154Z,74.57
2023-02-23T10:21:19.860Z,76.26
2023-02-23T10:24:25.538Z,75.43
2023-02-23T10:27:39.156Z,73.95
2023-02-23T10:30:42.269Z,72.71
2023-02-23T10:33:44.911Z,72.02
2023-02-23T10:36:53.394Z,72.88
2023-02-23T10:39:56.164Z,71.61
2023-02-23T10:43:02.408Z,69.89
2023-02-23T10:46:07.028Z,71.10
2023-02-23T10:49:18.982Z,73.61
2023-02-23T10:52:31.090Z,73.13
2023-02-23T10:55:34.442Z,72.33
2023-02-23T10:58:46.387Z,73.13
2023-02-23T11:02:01.541Z,74.43
2023-02-23T11:05:07.210Z,72.32
2023-02-23T11:08:20.657Z,73.46
2023-02-23T11:11:28.706Z,73.81
2023-02-23T11:14:33.169Z,73.69
2023-02-23T11:17:38.754Z,73.30
2023-02-23T11:20:44.301Z,73.12
2023-02-23T11:23:47.104Z,73.13
2023-02-23T11:26:52.170Z,72.36
2023-02-23T11:29:59.587Z,72.03
2023-02-23T11:33:11.089Z,69.59
2023-02-23T11:36:26.512Z,67.25
2023-02-23T11:39:29.261Z,67.00
2023-02-23T11:42:33.919Z,64.46
2023-02-23T11:45:47.473Z,62.94
2023-02-23T11:48:53.965Z,60.32
2023-02-23T11:51:59.374Z,60.57
2023-02-23T11:55:06.555Z,58.00
2023-02-23T11:58:24.138Z,59.50
2023-02-23T12:01:41.787Z,58.11
2023-02-23T12:04:47.545Z,57.57
2023-02-23T12:07:56.789Z,58.60
2023-02-23T12:11:03.803Z,58.34
2023-02-23T12:14:13.523Z,58.01
2023-02-23T12:17:23.018Z,56.80
2023-02-23T12:20:27.865Z,54.64
2023-02-23T12:23:34.846Z,53.41
2023-02-23T12:26:45.789Z,56.73
2023-02-23T12:30:03.114Z,56.67
2023-02-23T12:33:13.096Z,59.13
2023-02-23T12:36:26.040Z,60.68
2023-02-23T12:39:33.078Z,61.54
2023-02-23T12:42:41.506Z,62.43
2023-02-23T12:45:47.391Z,62.85
2023-02-23T12:49:01.458Z,64.39
2023-02-23T12:52:11.461Z,65.48
2023-02-23T12:55:15.372Z,67.12
2023-02-23T12:58:25.441Z,66.95
2023-02-23T13:01:32.885Z,67.74
2023-02-23T13:04:53.559Z,67.73
2023-02-23T13:08:13.468Z,68.81
2023-02-23T13:11:28.693Z,68.95
2023-02-23T13:14:39.088Z,68.47
2023-02-23T13:17:48.018Z,68.81
2023-02-23T13:20:56.630Z,68.62
2023-02-23T13:24:05.145Z,69.93
2023-02-23T13:27:16.328Z,70.38
2023-02-23T13:30:20.728Z,70.62
2023-02-23T13:33:41.870Z,70.24
2023-02-23T13:36:50.394Z,70.35
2023-02-23T13:40:09.397Z,70.40
2023-02-23T13:43:22.985Z,70.12
2023-02-23T13:46:37.215Z,70.59
2023-02-23T13:49:47.483Z,70.84
2023-02-23T13:52:58.343Z,71.26
2023-02-23T13:56:06.683Z,70.74
2023-02-23T13:59:16.336Z,70.35
2023-02-23T14:02:33.139Z,70.72
2023-02-23T14:05:44.421Z,68.83
2023-02-23T14:08:54.464Z,70.11
2023-02-23T14:12:05.331Z,69.67
2023-02-23T14:15:41.271Z,70.31
2023-02-23T14:19:07.037Z,68.87
2023-02-23T14:22:15.392Z,67.46
2023-02-23T14:25:48.381Z,67.17
2023-02-23T14:29:17.854Z,67.05
2023-02-23T14:32:32.334Z,68.29
2023-02-23T14:35:44.453Z,68.36
2023-02-23T14:38:48.475Z,69.05
2023-02-23T14:41:55.511Z,68.84
2023-02-23T14:45:03.936Z,68.88
2023-02-23T14:48:09.791Z,68.37
2023-02-23T14:51:17.839Z,69.24
2023-02-23T14:54:26.453Z,69.96
2023-02-23T14:57:30.417Z,69.69
2023-02-23T15:00:42.198Z,70.01
2023-02-23T15:04:09.576Z,70.17
2023-02-23T15:07:18.756Z,69.87
2023-02-23T15:10:27.013Z,71.92
2023-02-23T15:13:33.953Z,73.75
2023-02-23T15:16:37.840Z,75.49
2023-02-23T15:19:40.994Z,76.43
2023-02-23T15:22:47.142Z,76.28
2023-02-23T15:25:51.214Z,77.60
2023-02-23T15:28:56.271Z,78.94
2023-02-23T15:32:15.322Z,78.63
2023-02-23T15:35:18.296Z,78.54
2023-02-23T15:38:42.251Z,78.18
2023-02-23T15:41:48.715Z,78.31
2023-02-23T15:45:04.780Z,77.98
2023-02-23T15:48:12.149Z,78.09
2023-02-23T15:51:26.128Z,78.27
2023-02-23T15:54:32.236Z,78.29
2023-02-23T15:57:48.507Z,77.84
2023-02-23T16:00:57.587Z,77.64
2023-02-23T16:04:03.538Z,78.83
2023-02-23T16:07:17.822Z,79.49
2023-02-23T16:10:23.329Z,79.42
2023-02-23T16:13:27.267Z,78.86
2023-02-23T16:16:34.965Z,79.17
2023-02-23T16:19:40.900Z,79.79
2023-02-23T16:22:46.203Z,79.47
2023-02-23T16:25:54.197Z,80.69
2023-02-23T16:28:59.647Z,80.81
2023-02-23T16:32:04.192Z,80.32
2023-02-23T16:35:16.860Z,80.97
2023-02-23T16:38:25.645Z,80.88
2023-02-23T16:41:31.004Z,81.05
2023-02-23T16:44:42.896Z,81.69
2023-02-23T16:47:48.819Z,81.75
2023-02-23T16:50:51.751Z,82.90
2023-02-23T16:53:54.454Z,83.04
2023-02-23T16:56:57.359Z,83.98
2023-02-23T17:00:00.552Z,84.28
2023-02-23T17:03:06.681Z,84.38
2023-02-23T17:06:10.023Z,85.13
2023-02-23T17:09:13.481Z,85.25
2023-02-23T17:12:21.717Z,85.27
2023-02-23T17:15:27.282Z,85.18
2023-02-23T17:18:33.510Z,84.95
2023-02-23T17:21:36.113Z,84.91
2023-02-23T17:24:38.864Z,84.13
2023-02-23T17:27:41.488Z,83.72
2023-02-23T17:30:44.815Z,84.45
2023-02-23T17:33:49.602Z,84.20
2023-02-23T17:36:52.319Z,84.15
2023-02-23T17:39:55.003Z,84.51
2023-02-23T17:43:00.166Z,85.43
2023-02-23T17:46:03.025Z,85.68
2023-02-23T17:49:07.197Z,86.93
2023-02-23T17:52:09.816Z,87.35
2023-02-23T17:55:12.757Z,87.13
2023-02-23T17:58:15.592Z,87.62
2023-02-23T18:01:19.821Z,87.91
2023-02-23T18:04:24.138Z,88.09
2023-02-23T18:07:26.891Z,88.71
2023-02-23T18:10:29.516Z,88.83
2023-02-23T18:13:33.712Z,88.71
2023-02-23T18:16:36.493Z,88.78
2023-02-23T18:19:40.824Z,88.41
2023-02-23T18:22:43.639Z,88.18
2023-02-23T18:25:46.716Z,88.40
2023-02-23T18:28:51.080Z,88.60
2023-02-23T18:31:53.930Z,87.81
2023-02-23T18:34:58.015Z,86.64
2023-02-23T18:38:00.712Z,85.00
2023-02-23T18:41:03.628Z,84.27
2023-02-23T18:44:08.391Z,84.23
2023-02-23T18:47:11.585Z,83.71
2023-02-23T18:50:18.855Z,84.39
2023-02-23T18:53:21.478Z,84.90
2023-02-23T18:56:28.065Z,84.40
2023-02-23T18:59:30.738Z,84.47
2023-02-23T19:02:33.349Z,83.91
2023-02-23T19:05:37.815Z,83.63
2023-02-23T19:08:41.956Z,83.77
2023-02-23T19:11:44.635Z,84.65
2023-02-23T19:14:51.122Z,85.60
2023-02-23T19:17:54.400Z,86.28
2023-02-23T19:20:58.489Z,86.52
2023-02-23T19:24:02.375Z,87.34
2023-02-23T19:27:05.144Z,88.45
2023-02-23T19:30:10.305Z,88.62
2023-02-23T19:33:14.227Z,89.12
2023-02-23T19:36:20.219Z,89.80
2023-02-23T19:39:22.851Z,90.68
2023-02-23T19:42:25.505Z,91.34
2023-02-23T19:45:28.159Z,91.06
2023-02-23T19:48:30.780Z,91.36
2023-02-23T19:51:34.833Z,91.31
2023-02-23T19:54:37.985Z,92.03
2023-02-23T19:57:40.796Z,91.91
2023-02-23T20:00:45.215Z,92.11
2023-02-23T20:03:55.094Z,91.99
2023-02-23T20:06:59.076Z,92.27
2023-02-23T20:10:05.352Z,91.55
2023-02-23T20:13:08.617Z,90.34
2023-02-23T20:16:13.572Z,90.57
2023-02-23T20:19:16.315Z,89.42
2023-02-23T20:22:20.348Z,90.23
2023-02-23T20:25:23.458Z,90.06
2023-02-23T20:28:26.119Z,90.08
2023-02-23T20:31:31.195Z,90.54
2023-02-23T20:34:35.637Z,90.76
2023-02-23T20:37:39.736Z,91.21
2023-02-23T20:40:42.631Z,91.59
2023-02-23T20:43:45.984Z,92.16
2023-02-23T20:46:49.056Z,92.07
2023-02-23T20:49:51.711Z,92.62
2023-02-23T20:52:55.952Z,92.76
2023-02-23T20:55:58.796Z,92.54
2023-02-23T20:59:02.291Z,92.99
2023-02-23T21:02:05.397Z,93.54
2023-02-23T21:05:12.223Z,94.29
2023-02-23T21:08:16.462Z,93.87
2023-02-23T21:11:20.525Z,94.31
2023-02-23T21:14:23.393Z,94.02
2023-02-23T21:17:26.203Z,94.39
2023-02-23T21:20:29.671Z,94.21
2023-02-23T21:23:33.688Z,94.78
2023-02-23T21:26:36.960Z,94.54
2023-02-23T21:29:40.512Z,94.36
2023-02-23T21:32:43.570Z,94.67
2023-02-23T21:35:46.221Z,94.45
2023-02-23T21:38:51.316Z,94.57
2023-02-23T21:41:53.929Z,94.45
2023-02-23T21:44:56.810Z,93.94
2023-02-23T21:47:59.435Z,94.89
2023-02-23T21:51:06.215Z,94.35
2023-02-23T21:54:10.347Z,94.76
2023-02-23T21:57:13.231Z,95.31
2023-02-23T22:00:18.949Z,95.21
2023-02-23T22:03:26.011Z,95.53
2023-02-23T22:06:31.350Z,95.32
2023-02-23T22:09:36.066Z,94.72
2023-02-23T22:12:38.684Z,94.04
2023-02-23T22:15:41.315Z,93.84
2023-02-23T22:18:44.398Z,94.15
2023-02-23T22:21:48.371Z,94.31
2023-02-23T22:24:52.336Z,93.86
2023-02-23T22:27:54.948Z,94.05
2023-02-23T22:30:57.993Z,94.50
2023-02-23T22:34:00.749Z,94.66
2023-02-23T22:37:03.502Z,94.60
2023-02-23T22:40:14.356Z,94.81
2023-02-23T22:43:17.033Z,94.11
2023-02-23T22:46:19.759Z,93.75
2023-02-23T22:49:22.388Z,93.89
2023-02-23T22:52:26.677Z,93.64
2023-02-23T22:55:31.153Z,94.12
2023-02-23T22:58:33.838Z,94.03
2023-02-23T23:01:38.410Z,93.86
2023-02-23T23:04:41.321Z,93.76
2023-02-23T23:07:46.773Z,94.05
2023-02-23T23:10:50.958Z,94.07
2023-02-23T23:13:57.619Z,93.83
2023-02-23T23:17:00.294Z,94.27
2023-02-23T23:20:10.614Z,94.11
2023-02-23T23:23:13.321Z,94.18
2023-02-23T23:26:20.112Z,94.55
2023-02-23T23:29:25.721Z,94.41
2023-02-23T23:32:29.934Z,94.92
2023-02-23T23:35:34.278Z,94.54
2023-02-23T23:38:38.520Z,94.75
2023-02-23T23:41:44.042Z,95.28
2023-02-23T23:44:46.721Z,95.36
2023-02-23T23:47:49.333Z,95.30
2023-02-23T23:50:51.970Z,95.16
2023-02-23T23:53:54.628Z,94.79
2023-02-23T23:57:01.238Z,94.89
